Time;durP1;ratioP1;P1;durP2;ratioP2;P2;SDS_P1;SDS_P2;PMS_P1;PMS_P2;Temp;Humidity;BMP_temperature;BMP_pressure;BME280_temperature;BME280_humidity;BME280_pressure;Samples;Min_cycle;Max_cycle;Signal;HPM_P1;HPM_P2
2024/02/02 00:01:19;;;;;;;9.18;7.30;;;;;;;14.29;69.05;100302.63;5108295;28;20032;-49
2024/02/02 00:03:44;;;;;;;11.98;10.40;;;;;;;14.43;69.25;100314.16;5108261;28;20134;-49
2024/02/02 00:06:10;;;;;;;10.52;5.40;;;;;;;14.48;68.77;100314.41;5091153;28;20398;-49
2024/02/02 00:08:36;;;;;;;9.15;5.30;;;;;;;14.36;68.53;100314.06;5092827;28;20024;-49
2024/02/02 00:11:02;;;;;;;6.90;4.85;;;;;;;14.35;68.83;100324.81;5092435;28;20420;-49
2024/02/02 00:13:28;;;;;;;5.78;5.18;;;;;;;14.28;68.89;100321.28;5092615;28;20452;-49
2024/02/02 00:15:53;;;;;;;5.97;5.28;;;;;;;14.12;68.64;100333.66;5074182;28;20485;-49
2024/02/02 00:18:19;;;;;;;14.68;13.35;;;;;;;13.94;69.44;100325.28;5107963;28;20024;-49
2024/02/02 00:20:46;;;;;;;14.15;11.70;;;;;;;13.91;70.02;100323.84;5091015;28;20028;-49
2024/02/02 00:23:12;;;;;;;24.27;21.90;;;;;;;13.87;69.90;100317.28;5092198;28;20051;-49
2024/02/02 00:25:38;;;;;;;8.82;7.07;;;;;;;13.94;70.29;100317.38;5092152;28;20056;-49
2024/02/02 00:28:04;;;;;;;9.82;8.98;;;;;;;14.12;69.73;100322.28;5092147;28;20073;-49
2024/02/02 00:30:35;;;;;;;8.98;7.00;;;;;;;14.24;69.14;100320.00;5092135;28;20110;-49
2024/02/02 00:33:02;;;;;;;7.72;4.65;;;;;;;14.33;68.70;100314.44;5092134;28;20059;-49
2024/02/02 00:35:28;;;;;;;7.63;5.78;;;;;;;14.36;68.60;100318.53;5107919;28;20062;-49
2024/02/02 00:37:53;;;;;;;18.52;16.63;;;;;;;14.39;68.21;100323.47;5092068;28;20020;-49
2024/02/02 00:40:19;;;;;;;7.70;6.18;;;;;;;14.27;68.55;100327.56;5092031;28;20486;-49
2024/02/02 00:42:45;;;;;;;8.48;5.05;;;;;;;14.30;68.75;100324.56;5091955;28;20032;-49
2024/02/02 00:45:11;;;;;;;4.88;3.80;;;;;;;14.36;68.66;100314.06;5090844;28;20571;-49
2024/02/02 00:47:37;;;;;;;8.00;5.70;;;;;;;14.39;68.50;100318.97;5107645;28;20027;-49
2024/02/02 00:50:05;;;;;;;7.15;4.63;;;;;;;14.40;68.50;100309.22;5091864;28;20024;-50
2024/02/02 00:52:32;;;;;;;5.30;4.25;;;;;;;14.30;68.68;100319.25;5107491;28;20139;-49
2024/02/02 00:54:58;;;;;;;4.57;3.92;;;;;;;14.15;68.72;100322.75;5092175;28;20525;-49
2024/02/02 00:57:23;;;;;;;6.10;4.97;;;;;;;14.12;68.91;100328.38;5091832;28;20435;-49
2024/02/02 00:59:50;;;;;;;6.95;4.50;;;;;;;13.96;69.39;100325.94;5091827;28;20024;-49
2024/02/02 01:02:17;;;;;;;6.35;4.30;;;;;;;14.01;69.74;100325.41;5091792;28;20060;-49
2024/02/02 01:04:46;;;;;;;5.75;4.55;;;;;;;14.03;69.42;100332.13;5091803;28;20442;-49
2024/02/02 01:07:15;;;;;;;6.53;4.38;;;;;;;14.05;69.04;100324.84;5107352;28;20047;-49
2024/02/02 01:09:41;;;;;;;6.97;4.90;;;;;;;13.92;69.16;100333.41;5091757;28;20031;-49
2024/02/02 01:12:08;;;;;;;7.68;6.03;;;;;;;13.87;70.18;100324.41;5091516;28;20024;-49
2024/02/02 01:14:35;;;;;;;9.38;4.93;;;;;;;14.07;69.83;100314.94;5091717;28;20105;-49
2024/02/02 01:17:01;;;;;;;60.50;33.42;;;;;;;14.18;68.67;100329.47;5091707;28;20095;-48
2024/02/02 01:19:27;;;;;;;32.20;19.73;;;;;;;13.96;69.01;100332.03;5091655;28;20025;-49
2024/02/02 01:21:52;;;;;;;13.15;7.32;;;;;;;13.97;69.68;100338.13;5091640;28;20046;-49
2024/02/02 01:24:18;;;;;;;13.55;12.20;;;;;;;13.97;69.83;100330.22;5107335;28;20048;-49
2024/02/02 01:26:44;;;;;;;28.00;25.65;;;;;;;13.98;69.67;100332.69;5091542;28;20508;-49
2024/02/02 01:29:09;;;;;;;13.85;12.55;;;;;;;13.88;69.57;100339.22;5091582;28;20039;-49
2024/02/02 01:31:35;;;;;;;9.30;8.35;;;;;;;13.74;70.16;100336.41;5090374;28;20028;-49
2024/02/02 01:34:01;;;;;;;12.10;8.68;;;;;;;13.77;70.61;100345.75;5107176;28;20024;-49
2024/02/02 01:36:27;;;;;;;10.43;4.47;;;;;;;13.84;70.42;100340.56;5107167;28;20119;-49
2024/02/02 01:38:54;;;;;;;9.27;5.20;;;;;;;13.86;70.28;100352.59;5091512;28;20016;-49
2024/02/02 01:41:20;;;;;;;8.10;4.40;;;;;;;13.78;70.56;100350.88;5091450;28;20090;-49
2024/02/02 01:43:46;;;;;;;13.77;11.23;;;;;;;13.89;70.48;100348.78;5107125;28;20024;-49
2024/02/02 01:46:15;;;;;;;10.77;5.82;;;;;;;14.01;70.47;100354.44;5091167;28;20052;-49
2024/02/02 01:48:41;;;;;;;10.23;7.72;;;;;;;14.09;69.87;100357.81;5091429;28;20031;-49
2024/02/02 01:51:07;;;;;;;5.15;3.67;;;;;;;14.36;69.61;100355.50;5091321;28;20118;-49
2024/02/02 01:53:33;;;;;;;8.32;5.82;;;;;;;14.56;68.56;100347.84;5089960;28;20521;-49
2024/02/02 01:56:02;;;;;;;5.25;4.55;;;;;;;14.67;67.70;100351.84;5091286;28;20050;-49
2024/02/02 01:58:29;;;;;;;8.63;5.35;;;;;;;14.67;67.34;100350.03;5095312;28;20093;-49
2024/02/02 02:00:54;;;;;;;7.25;4.65;;;;;;;14.76;67.50;100356.00;5094960;28;20024;-49
2024/02/02 02:03:20;;;;;;;4.85;4.30;;;;;;;14.80;66.91;100349.34;5110589;28;20520;-49
2024/02/02 02:05:46;;;;;;;6.68;5.65;;;;;;;14.76;66.80;100361.31;5094889;28;20130;-48
2024/02/02 02:08:12;;;;;;;7.78;4.75;;;;;;;14.86;66.75;100355.72;5094778;28;20482;-49
2024/02/02 02:10:38;;;;;;;6.40;4.97;;;;;;;14.64;66.00;100360.16;5110443;28;20032;-49
2024/02/02 02:13:04;;;;;;;30.58;27.88;;;;;;;14.30;67.11;100354.41;5110354;28;20057;-49
2024/02/02 02:15:29;;;;;;;5.97;5.30;;;;;;;14.07;68.10;100348.44;5093380;28;20074;-48
2024/02/02 02:17:55;;;;;;;9.35;7.68;;;;;;;13.95;68.82;100340.94;5110330;28;20028;-49
2024/02/02 02:20:22;;;;;;;6.57;5.75;;;;;;;13.92;69.26;100337.84;5110259;28;20293;-49
2024/02/02 02:22:48;;;;;;;13.93;12.48;;;;;;;13.91;69.80;100349.41;5093222;28;20031;-49
2024/02/02 02:25:14;;;;;;;6.75;6.15;;;;;;;13.93;69.04;100337.69;5093103;28;20036;-49
2024/02/02 02:27:40;;;;;;;9.15;7.40;;;;;;;13.94;69.75;100341.13;5094448;28;20085;-49
2024/02/02 02:30:06;;;;;;;5.32;4.80;;;;;;;13.96;69.34;100341.75;5110001;28;20123;-49
2024/02/02 02:32:32;;;;;;;13.70;12.43;;;;;;;13.92;69.01;100346.59;5109975;28;20025;-49
2024/02/02 02:34:58;;;;;;;9.43;6.50;;;;;;;13.82;69.11;100342.56;5094339;28;20021;-49
2024/02/02 02:37:24;;;;;;;6.95;6.05;;;;;;;13.66;69.39;100341.75;5094151;28;20028;-49
2024/02/02 02:39:49;;;;;;;11.32;8.50;;;;;;;13.54;70.10;100344.00;5109869;28;20046;-48
2024/02/02 02:42:15;;;;;;;13.70;12.18;;;;;;;13.51;70.40;100338.25;5109810;28;20067;-49
2024/02/02 02:44:41;;;;;;;7.97;7.18;;;;;;;13.47;70.88;100334.34;5093871;28;20052;-49
2024/02/02 02:47:10;;;;;;;7.35;5.10;;;;;;;13.52;70.89;100331.97;5093927;28;20082;-49
2024/02/02 02:49:36;;;;;;;5.88;5.32;;;;;;;13.55;70.70;100331.63;5094073;28;20103;-49
2024/02/02 02:52:01;;;;;;;6.97;4.50;;;;;;;13.41;70.63;100335.88;5109523;28;20148;-49
2024/02/02 02:54:27;;;;;;;18.88;16.90;;;;;;;13.40;71.55;100336.88;5092647;28;20383;-49
2024/02/02 02:56:53;;;;;;;6.22;5.45;;;;;;;13.37;71.06;100334.59;5093894;28;20027;-49
2024/02/02 02:59:18;;;;;;;6.72;5.15;;;;;;;13.33;70.96;100341.22;5093830;28;20076;-49
2024/02/02 03:01:44;;;;;;;10.43;7.55;;;;;;;13.37;71.67;100338.03;5093657;28;20106;-49
2024/02/02 03:04:13;;;;;;;12.63;9.48;;;;;;;13.48;71.58;100341.25;5092438;28;20111;-49
2024/02/02 03:06:39;;;;;;;17.77;16.08;;;;;;;13.45;71.07;100346.88;5093729;28;20100;-49
2024/02/02 03:09:04;;;;;;;34.90;31.15;;;;;;;13.43;71.45;100354.16;5092771;28;20107;-49
2024/02/02 03:11:30;;;;;;;52.78;47.75;;;;;;;13.36;71.89;100354.88;5093609;28;20019;-49
2024/02/02 03:13:57;;;;;;;42.42;38.25;;;;;;;13.27;71.99;100345.34;5093457;28;20035;-49
2024/02/02 03:16:22;;;;;;;38.47;34.45;;;;;;;13.38;72.60;100347.59;5092123;28;20016;-49
2024/02/02 03:18:48;;;;;;;29.73;26.90;;;;;;;13.55;72.17;100350.09;5093452;28;20031;-49
2024/02/02 03:21:14;;;;;;;27.00;24.50;;;;;;;13.58;71.57;100347.06;5093376;28;20059;-50
2024/02/02 03:23:39;;;;;;;18.60;16.67;;;;;;;13.44;71.77;100346.06;5092022;28;20035;-50
2024/02/02 03:26:06;;;;;;;27.63;25.13;;;;;;;13.46;71.67;100346.72;5093268;28;20027;-49
2024/02/02 03:28:33;;;;;;;28.50;25.02;;;;;;;13.56;71.71;100346.44;5091986;28;20053;-49
2024/02/02 03:30:59;;;;;;;20.48;18.60;;;;;;;13.68;71.25;100338.91;5091850;28;20024;-49
2024/02/02 03:33:25;;;;;;;16.17;13.15;;;;;;;13.71;70.82;100334.09;5093039;28;20024;-49
2024/02/02 03:35:50;;;;;;;10.65;9.20;;;;;;;13.71;70.87;100333.28;5074988;28;20027;-49
2024/02/02 03:38:16;;;;;;;22.60;20.63;;;;;;;13.67;70.67;100332.81;5108721;28;20024;-49
2024/02/02 03:40:42;;;;;;;13.23;11.95;;;;;;;13.39;71.07;100328.13;5091698;28;20028;-49
2024/02/02 03:43:10;;;;;;;22.92;20.52;;;;;;;13.39;71.49;100330.75;5092996;28;20046;-49
2024/02/02 03:45:36;;;;;;;9.23;8.18;;;;;;;13.58;71.68;100336.53;5092559;28;20048;-49
2024/02/02 03:48:01;;;;;;;9.68;8.77;;;;;;;13.75;70.90;100335.38;5093141;28;20032;-49
2024/02/02 03:50:30;;;;;;;11.10;9.57;;;;;;;13.61;70.49;100333.53;5108512;28;20502;-49
2024/02/02 03:52:56;;;;;;;19.40;16.02;;;;;;;13.45;70.87;100339.78;5091472;28;20072;-49
2024/02/02 03:55:22;;;;;;;10.77;7.90;;;;;;;13.41;71.23;100330.59;5091360;28;20028;-49
2024/02/02 03:57:47;;;;;;;10.75;9.35;;;;;;;13.51;71.50;100335.63;5108377;28;20069;-49
2024/02/02 04:00:13;;;;;;;9.60;8.60;;;;;;;13.58;71.35;100332.09;5092650;28;20035;-49
2024/02/02 04:02:39;;;;;;;15.60;14.15;;;;;;;13.64;71.00;100335.81;5092647;28;20027;-49
2024/02/02 04:05:06;;;;;;;16.77;15.02;;;;;;;13.66;71.02;100330.34;5092517;28;20028;-49
2024/02/02 04:07:31;;;;;;;8.27;7.20;;;;;;;13.71;70.60;100342.03;5091199;28;20506;-49
2024/02/02 04:09:57;;;;;;;11.30;7.72;;;;;;;13.75;70.47;100332.75;5092492;28;20024;-49
2024/02/02 04:12:23;;;;;;;9.82;8.10;;;;;;;13.71;70.29;100325.38;5092364;28;20020;-49
2024/02/02 04:14:49;;;;;;;11.40;9.05;;;;;;;13.64;70.32;100330.53;5108075;28;20028;-49
2024/02/02 04:17:14;;;;;;;9.00;7.57;;;;;;;13.61;70.36;100320.34;5092294;28;20024;-49
2024/02/02 04:19:40;;;;;;;27.92;25.23;;;;;;;13.65;70.87;100328.72;5092212;28;20394;-49
2024/02/02 04:22:06;;;;;;;11.27;10.02;;;;;;;13.72;70.48;100327.00;5090955;28;20394;-49
2024/02/02 04:24:32;;;;;;;13.38;11.80;;;;;;;13.69;70.44;100325.56;5092217;28;20550;-49
2024/02/02 04:26:58;;;;;;;10.85;7.97;;;;;;;13.87;70.38;100321.75;5090861;28;20024;-49
2024/02/02 04:29:23;;;;;;;12.02;10.73;;;;;;;13.92;69.75;100322.00;5092174;28;20020;-49
2024/02/02 04:31:49;;;;;;;12.00;9.20;;;;;;;13.87;69.29;100321.75;5092128;28;20054;-49
2024/02/02 04:34:15;;;;;;;26.98;12.48;;;;;;;13.77;69.30;100325.47;5107695;28;20383;-47
2024/02/02 04:36:41;;;;;;;23.40;13.18;;;;;;;13.77;69.89;100325.47;5092085;28;20031;-47
2024/02/02 04:39:08;;;;;;;26.65;11.38;;;;;;;13.85;70.46;100329.03;5091995;28;20016;-47
2024/02/02 04:41:34;;;;;;;22.17;12.30;;;;;;;13.96;69.75;100321.50;5074031;28;20588;-47
2024/02/02 04:44:00;;;;;;;17.38;14.30;;;;;;;13.93;69.45;100326.31;5092031;28;20028;-47
2024/02/02 04:46:26;;;;;;;11.68;9.93;;;;;;;13.83;69.48;100320.47;5091676;28;20109;-47
2024/02/02 04:48:52;;;;;;;29.10;26.42;;;;;;;13.71;69.43;100323.56;5107572;28;20379;-47
2024/02/02 04:51:18;;;;;;;13.57;8.73;;;;;;;13.66;69.40;100327.72;5092113;28;20099;-47
2024/02/02 04:53:43;;;;;;;36.70;33.25;;;;;;;13.58;69.69;100324.19;5091782;28;20077;-47
2024/02/02 04:56:10;;;;;;;14.50;12.88;;;;;;;13.62;69.63;100327.25;5091867;28;20027;-47
2024/02/02 04:58:35;;;;;;;9.90;8.85;;;;;;;13.73;69.95;100316.28;5091862;28;20070;-47
2024/02/02 05:01:01;;;;;;;9.48;7.55;;;;;;;13.78;69.28;100328.91;5107468;28;20393;-47
2024/02/02 05:03:27;;;;;;;15.73;13.43;;;;;;;13.61;69.20;100320.34;5091818;28;20024;-47
2024/02/02 05:05:53;;;;;;;9.23;8.32;;;;;;;13.32;69.29;100327.22;5090428;28;20038;-47
2024/02/02 05:08:20;;;;;;;9.20;8.02;;;;;;;13.17;69.91;100324.47;5091720;28;20016;-47
2024/02/02 05:10:46;;;;;;;11.25;10.05;;;;;;;13.17;70.61;100326.31;5091691;28;20030;-47
2024/02/02 05:13:12;;;;;;;18.13;13.48;;;;;;;13.11;70.41;100316.47;5091624;28;20491;-47
2024/02/02 05:15:37;;;;;;;14.45;11.13;;;;;;;13.04;70.63;100323.44;5091664;28;20047;-47
2024/02/02 05:18:04;;;;;;;19.65;17.67;;;;;;;13.03;70.95;100327.06;5090320;28;20039;-47
2024/02/02 05:20:29;;;;;;;15.05;12.73;;;;;;;13.02;71.46;100325.41;5073511;28;20035;-47
2024/02/02 05:22:55;;;;;;;12.75;11.50;;;;;;;12.97;71.40;100326.75;5090269;28;20024;-47
2024/02/02 05:25:21;;;;;;;9.93;8.88;;;;;;;12.97;71.57;100333.84;5091528;28;20024;-47
2024/02/02 05:27:46;;;;;;;11.02;8.15;;;;;;;12.93;71.21;100316.75;5107107;28;20527;-47
2024/02/02 05:30:12;;;;;;;11.45;8.90;;;;;;;12.88;71.58;100325.19;5091520;28;20020;-47
2024/02/02 05:32:38;;;;;;;10.32;7.95;;;;;;;12.92;71.52;100325.66;5092966;28;20024;-47
2024/02/02 05:35:04;;;;;;;8.85;7.63;;;;;;;12.87;71.68;100326.19;5111393;28;20020;-47
2024/02/02 05:37:30;;;;;;;12.13;8.73;;;;;;;12.85;71.63;100314.19;5111106;28;20099;-47
2024/02/02 05:39:56;;;;;;;12.05;10.85;;;;;;;12.79;71.56;100318.31;5111100;28;20547;-47
2024/02/02 05:42:22;;;;;;;13.55;8.35;;;;;;;12.77;71.66;100317.69;5110965;28;20031;-47
2024/02/02 05:44:47;;;;;;;17.80;16.08;;;;;;;12.84;71.58;100321.28;5095048;28;20409;-47
2024/02/02 05:47:13;;;;;;;17.55;15.75;;;;;;;12.80;71.80;100325.25;5093912;28;20052;-47
2024/02/02 05:49:39;;;;;;;12.48;11.18;;;;;;;12.87;71.80;100320.09;5095226;28;20024;-47
2024/02/02 05:52:05;;;;;;;17.33;9.15;;;;;;;12.94;71.98;100327.13;5095026;28;20486;-47
2024/02/02 05:54:31;;;;;;;9.80;8.80;;;;;;;13.00;71.64;100322.97;5111115;28;20028;-47
2024/02/02 05:56:57;;;;;;;17.35;15.43;;;;;;;12.93;70.94;100322.03;5110688;28;20024;-47
2024/02/02 05:59:23;;;;;;;18.75;17.00;;;;;;;12.68;71.13;100322.19;5095006;28;20075;-47
2024/02/02 06:01:49;;;;;;;12.10;10.27;;;;;;;12.48;72.06;100319.16;5095273;28;20060;-47
2024/02/02 06:04:15;;;;;;;45.75;41.25;;;;;;;12.31;72.20;100323.66;5094818;28;20024;-47
2024/02/02 06:06:40;;;;;;;11.02;8.63;;;;;;;12.21;72.38;100327.50;5094838;28;20103;-47
2024/02/02 06:09:09;;;;;;;17.55;15.63;;;;;;;12.13;72.88;100328.34;5095115;28;20435;-47
2024/02/02 06:11:35;;;;;;;15.23;7.55;;;;;;;12.02;72.86;100329.53;5094760;28;20024;-47
2024/02/02 06:14:01;;;;;;;10.38;8.57;;;;;;;11.92;73.19;100332.34;5094673;28;20077;-47
2024/02/02 06:16:26;;;;;;;10.30;7.35;;;;;;;11.90;73.55;100339.59;5094722;28;20028;-47
2024/02/02 06:18:52;;;;;;;16.05;14.38;;;;;;;11.92;73.43;100342.88;5094918;28;20027;-47
2024/02/02 06:21:18;;;;;;;10.50;7.75;;;;;;;11.93;73.55;100341.91;5094537;28;20110;-47
2024/02/02 06:23:44;;;;;;;27.40;24.73;;;;;;;12.04;73.99;100348.63;5094611;28;20027;-47
2024/02/02 06:26:09;;;;;;;16.92;15.35;;;;;;;12.17;73.50;100350.69;5093230;28;20482;-47
2024/02/02 06:28:35;;;;;;;10.25;9.25;;;;;;;12.18;73.31;100350.53;5094529;28;20490;-47
2024/02/02 06:31:01;;;;;;;9.68;7.78;;;;;;;12.32;73.07;100362.19;5093410;28;20032;-47
2024/02/02 06:33:26;;;;;;;13.25;11.85;;;;;;;12.50;72.37;100354.03;5109993;28;20049;-47
2024/02/02 06:35:55;;;;;;;21.83;19.83;;;;;;;12.57;71.21;100349.72;5094365;28;20035;-47
2024/02/02 06:38:21;;;;;;;17.02;12.70;;;;;;;12.49;71.01;100367.38;5094327;28;20069;-47
2024/02/02 06:40:46;;;;;;;15.77;14.18;;;;;;;12.51;71.41;100354.84;5094159;28;20024;-47
2024/02/02 06:43:12;;;;;;;11.73;10.63;;;;;;;12.71;71.32;100358.69;5092815;28;20031;-47
2024/02/02 06:45:38;;;;;;;14.18;9.32;;;;;;;12.97;70.65;100360.22;5092554;28;20051;-47
2024/02/02 06:48:04;;;;;;;12.52;8.15;;;;;;;13.09;69.59;100363.28;5109732;28;20020;-47
2024/02/02 06:50:31;;;;;;;19.35;11.65;;;;;;;13.14;69.21;100361.75;5092685;28;20091;-47
2024/02/02 06:52:57;;;;;;;14.23;12.70;;;;;;;13.18;68.94;100372.78;5093983;28;20020;-47
2024/02/02 06:55:22;;;;;;;15.02;13.63;;;;;;;13.27;68.34;100366.44;5093921;28;20032;-49
2024/02/02 06:57:48;;;;;;;21.92;19.77;;;;;;;13.17;67.94;100376.41;5093927;28;20020;-49
2024/02/02 07:00:15;;;;;;;11.52;10.25;;;;;;;13.13;68.41;100375.91;5093782;28;20036;-49
2024/02/02 07:02:43;;;;;;;20.42;18.25;;;;;;;13.16;68.38;100372.13;5092493;28;20085;-49
2024/02/02 07:05:12;;;;;;;12.23;11.02;;;;;;;13.15;67.56;100373.91;5093745;28;20024;-49
2024/02/02 07:07:38;;;;;;;20.77;18.77;;;;;;;13.05;67.80;100380.44;5093724;28;20073;-49
2024/02/02 07:10:04;;;;;;;10.23;8.10;;;;;;;13.02;68.19;100372.84;5093665;28;20486;-49
2024/02/02 07:12:48;;;;;;;9.32;8.43;;;;;;;13.08;68.58;100380.06;5093583;28;20055;-49
2024/02/02 07:15:19;;;;;;;15.65;11.75;;;;;;;13.18;68.29;100378.84;5093497;28;20063;-49
2024/02/02 07:17:46;;;;;;;16.20;14.50;;;;;;;13.19;67.99;100383.13;5093563;28;20108;-48
2024/02/02 07:20:32;;;;;;;10.18;8.48;;;;;;;13.21;67.86;100382.13;5093412;28;20800;-49
2024/02/02 07:23:01;;;;;;;9.18;8.27;;;;;;;13.22;67.84;100387.25;5093453;28;20047;-49
2024/02/02 07:25:27;;;;;;;7.20;6.38;;;;;;;13.23;67.71;100383.59;5093338;28;20020;-49
2024/02/02 07:28:05;;;;;;;11.23;10.23;;;;;;;13.16;67.41;100387.94;5093284;28;20016;-49
2024/02/02 07:30:53;;;;;;;9.57;7.03;;;;;;;13.07;67.85;100396.88;5093180;28;20059;-49
2024/02/02 07:33:40;;;;;;;12.20;9.55;;;;;;;12.87;67.65;100401.78;5093036;28;20067;-49
2024/02/02 07:36:29;;;;;;;12.95;9.77;;;;;;;12.73;67.92;100400.69;5093102;28;20128;-49
2024/02/02 07:38:55;;;;;;;12.52;11.23;;;;;;;12.62;68.89;100393.19;5091385;28;20127;-49
2024/02/02 07:41:28;;;;;;;16.40;9.32;;;;;;;12.70;69.60;100393.97;5092976;28;20493;-49
2024/02/02 07:43:57;;;;;;;19.40;14.50;;;;;;;12.78;69.39;100393.09;5108779;28;20032;-49
2024/02/02 07:46:23;;;;;;;16.10;14.50;;;;;;;12.86;69.08;100398.31;5092710;28;20480;-49
2024/02/02 07:48:50;;;;;;;13.27;10.68;;;;;;;12.77;68.15;100405.44;5092862;28;20093;-49
2024/02/02 07:51:22;;;;;;;17.70;15.98;;;;;;;12.83;68.52;100400.47;5092837;28;20035;-49
2024/02/02 07:53:49;;;;;;;20.98;16.15;;;;;;;12.94;68.54;100400.09;5092554;28;20035;-49
2024/02/02 07:56:17;;;;;;;20.35;18.25;;;;;;;12.88;67.72;100393.72;5091205;28;20071;-49
2024/02/02 07:58:43;;;;;;;19.58;17.67;;;;;;;12.86;68.06;100395.69;5092729;28;20020;-49
2024/02/02 08:01:09;;;;;;;16.25;14.52;;;;;;;12.98;67.86;100399.56;5092734;28;20024;-49
2024/02/02 08:03:36;;;;;;;18.90;16.83;;;;;;;13.06;67.43;100389.97;5091311;28;20039;-49
2024/02/02 08:06:02;;;;;;;12.20;11.00;;;;;;;13.09;67.28;100394.91;5092542;28;20509;-49
2024/02/02 08:08:31;;;;;;;15.27;13.82;;;;;;;13.18;67.44;100392.03;5093161;28;20127;-49
2024/02/02 08:10:58;;;;;;;10.48;9.38;;;;;;;13.37;67.36;100396.03;5092416;28;20028;-49
2024/02/02 08:13:23;;;;;;;17.05;15.23;;;;;;;13.79;67.14;100407.91;5092304;28;20020;-49
2024/02/02 08:15:49;;;;;;;21.90;19.88;;;;;;;14.10;65.83;100401.66;5091073;28;20028;-49
2024/02/02 08:18:15;;;;;;;12.70;11.32;;;;;;;14.35;64.84;100401.44;5092426;28;20058;-49
2024/02/02 08:20:41;;;;;;;26.23;23.48;;;;;;;14.52;64.71;100407.31;5091179;28;20028;-49
2024/02/02 08:23:07;;;;;;;11.25;7.40;;;;;;;14.89;62.79;100413.50;5092313;28;20028;-49
2024/02/02 08:25:35;;;;;;;22.50;19.45;;;;;;;14.93;61.97;100412.94;5107920;28;20059;-49
2024/02/02 08:28:01;;;;;;;13.13;9.30;;;;;;;14.89;61.84;100416.97;5090931;28;20080;-49
2024/02/02 08:30:27;;;;;;;12.70;7.75;;;;;;;15.00;60.96;100434.16;5092117;28;20028;-49
2024/02/02 08:32:53;;;;;;;9.25;7.10;;;;;;;15.05;60.28;100441.53;5092115;28;20490;-49
2024/02/02 08:35:20;;;;;;;13.07;7.85;;;;;;;15.16;60.44;100433.94;5107773;28;20028;-49
2024/02/02 08:37:48;;;;;;;8.98;7.28;;;;;;;15.18;60.20;100445.16;5090879;28;20107;-49
2024/02/02 08:40:24;;;;;;;9.75;6.72;;;;;;;15.23;59.64;100435.84;5091937;28;20051;-49
2024/02/02 08:42:50;;;;;;;15.88;8.95;;;;;;;15.28;59.55;100444.84;5092111;28;20516;-49
2024/02/02 08:45:41;;;;;;;17.40;14.30;;;;;;;15.71;59.83;100455.44;5091751;28;20036;-49
2024/02/02 08:48:37;;;;;;;18.70;16.52;;;;;;;16.49;57.68;100458.06;5090745;28;20066;-49
2024/02/02 08:51:13;;;;;;;21.42;15.90;;;;;;;16.55;56.18;100440.56;5091995;28;20028;-49
2024/02/02 08:53:40;;;;;;;38.17;34.78;;;;;;;16.61;56.86;100445.09;5091858;28;20020;-49
2024/02/02 08:56:12;;;;;;;14.20;10.75;;;;;;;17.22;55.56;100457.56;5090530;28;20023;-47
2024/02/02 08:58:38;;;;;;;15.65;11.70;;;;;;;17.18;54.02;100451.03;5090596;28;20032;-46
2024/02/02 09:01:05;;;;;;;9.63;7.80;;;;;;;16.46;54.49;100458.47;5091878;28;20024;-47
2024/02/02 09:03:44;;;;;;;12.18;7.57;;;;;;;15.85;56.47;100455.59;5092120;28;20024;-46
2024/02/02 09:06:29;;;;;;;15.00;7.10;;;;;;;15.52;57.48;100458.72;5092001;28;20032;-47
2024/02/02 09:08:54;;;;;;;12.83;6.77;;;;;;;15.31;57.90;100468.28;5111753;28;20448;-47
2024/02/02 09:11:23;;;;;;;9.50;6.82;;;;;;;15.15;58.53;100457.91;5095949;28;20286;-46
2024/02/02 09:14:00;;;;;;;10.25;8.80;;;;;;;15.16;58.59;100463.03;5095919;28;20030;-46
2024/02/02 09:16:38;;;;;;;9.63;8.13;;;;;;;16.08;58.96;100450.88;5111593;28;20028;-47
2024/02/02 09:19:13;;;;;;;14.50;6.78;;;;;;;17.30;53.99;100454.75;5094855;28;20070;-47
2024/02/02 09:21:39;;;;;;;7.45;5.10;;;;;;;17.88;52.85;100450.75;5111538;28;20055;-46
2024/02/02 09:24:26;;;;;;;17.48;11.95;;;;;;;19.04;49.85;100442.09;5095741;28;20115;-47
2024/02/02 09:26:52;;;;;;;15.35;9.60;;;;;;;19.07;48.81;100443.53;5095707;28;20039;-47
2024/02/02 09:29:18;;;;;;;22.48;20.25;;;;;;;19.56;47.41;100450.00;5111308;28;20024;-47
2024/02/02 09:31:46;;;;;;;15.00;8.93;;;;;;;19.42;46.71;100457.25;5095552;28;20021;-47
2024/02/02 09:34:20;;;;;;;9.52;6.43;;;;;;;19.56;46.47;100457.97;5095671;28;20499;-47
2024/02/02 09:36:47;;;;;;;9.95;6.65;;;;;;;20.32;44.74;100458.78;5095458;28;20512;-47
2024/02/02 09:39:34;;;;;;;14.45;7.07;;;;;;;19.99;44.53;100464.44;5095389;28;20027;-45
2024/02/02 09:42:06;;;;;;;6.88;6.07;;;;;;;19.60;45.18;100464.50;5095365;28;20027;-45
2024/02/02 09:44:43;;;;;;;7.20;6.40;;;;;;;19.26;45.15;100471.88;5095132;28;20032;-46
2024/02/02 09:47:08;;;;;;;6.80;6.10;;;;;;;18.75;45.95;100472.69;5095300;28;20026;-45
2024/02/02 09:49:34;;;;;;;13.23;5.95;;;;;;;18.30;46.78;100484.03;5095284;28;20035;-45
2024/02/02 09:52:03;;;;;;;11.30;5.40;;;;;;;18.23;48.06;100479.75;5095238;28;20129;-44
2024/02/02 09:54:31;;;;;;;13.05;5.57;;;;;;;18.72;46.95;100475.78;5095044;28;20150;-45
2024/02/02 09:57:35;;;;;;;11.13;5.60;;;;;;;17.80;47.77;100485.47;5110752;28;20039;-45
2024/02/02 10:00:12;;;;;;;12.32;5.88;;;;;;;17.58;50.05;100477.66;5088243;28;20032;-45
2024/02/02 10:02:38;;;;;;;9.02;5.60;;;;;;;18.46;48.58;100474.81;5110751;28;20076;-45
2024/02/02 10:05:06;;;;;;;12.48;6.57;;;;;;;19.05;47.28;100470.34;5094940;28;20024;-45
2024/02/02 10:07:58;;;;;;;10.63;5.57;;;;;;;18.54;47.40;100466.59;5110524;28;20039;-45
2024/02/02 10:10:42;;;;;;;8.55;5.32;;;;;;;18.10;48.48;100464.66;5094810;28;20024;-45
2024/02/02 10:13:33;;;;;;;6.40;4.50;;;;;;;19.90;45.57;100454.06;5094719;28;20107;-45
2024/02/02 10:16:14;;;;;;;4.40;4.00;;;;;;;21.37;41.04;100447.06;5094674;28;20433;-45
2024/02/02 10:19:23;;;;;;;5.53;4.10;;;;;;;22.61;39.44;100430.13;5094431;28;20056;-45
2024/02/02 10:21:55;;;;;;;5.35;4.15;;;;;;;23.59;36.04;100440.78;5094712;28;20020;-45
2024/02/02 10:24:49;;;;;;;6.03;4.45;;;;;;;24.08;35.34;100429.47;5110591;28;20044;-45
2024/02/02 10:27:27;;;;;;;4.80;3.90;;;;;;;24.13;34.10;100441.09;5094477;28;20032;-45
2024/02/02 10:29:53;;;;;;;5.80;3.78;;;;;;;24.38;33.31;100433.63;5094485;28;20024;-45
2024/02/02 10:32:28;;;;;;;6.25;3.72;;;;;;;24.45;32.76;100434.28;5109974;28;20353;-45
2024/02/02 10:35:00;;;;;;;4.82;3.90;;;;;;;24.58;32.60;100436.59;5094487;28;20107;-45
2024/02/02 10:37:37;;;;;;;6.10;3.78;;;;;;;24.77;32.69;100437.13;5094406;28;20076;-45
2024/02/02 10:40:10;;;;;;;9.00;4.55;;;;;;;25.00;32.59;100435.19;5094285;28;20020;-45
2024/02/02 10:42:56;;;;;;;8.32;4.38;;;;;;;24.37;32.48;100440.06;5094268;28;20161;-45
2024/02/02 10:45:31;;;;;;;7.72;3.88;;;;;;;24.00;33.58;100421.84;5082442;28;20065;-45
2024/02/02 10:48:25;;;;;;;9.40;4.18;;;;;;;23.97;32.98;100425.03;5094198;28;20031;-45
2024/02/02 10:51:12;;;;;;;5.35;3.92;;;;;;;24.12;33.18;100418.00;5094124;28;20073;-45
2024/02/02 10:53:41;;;;;;;4.80;3.25;;;;;;;24.63;31.85;100414.38;5094023;28;20063;-45
2024/02/02 10:56:07;;;;;;;7.95;3.92;;;;;;;24.47;31.53;100392.69;5109599;28;20020;-45
2024/02/02 10:58:48;;;;;;;7.72;3.40;;;;;;;24.12;32.41;100388.50;5093973;28;20028;-45
2024/02/02 11:01:32;;;;;;;4.47;4.00;;;;;;;23.88;32.93;100389.78;5093864;28;20028;-45
2024/02/02 11:04:02;;;;;;;5.53;3.50;;;;;;;23.21;33.52;100404.78;5093911;28;20034;-45
2024/02/02 11:06:56;;;;;;;8.13;6.82;;;;;;;22.76;34.52;100413.59;5093788;28;20498;-45
2024/02/02 11:09:55;;;;;;;8.57;4.68;;;;;;;22.29;35.34;100419.03;5093763;28;20419;-45
2024/02/02 11:12:41;;;;;;;5.20;3.95;;;;;;;22.33;35.65;100417.50;5092226;28;20040;-45
2024/02/02 11:15:30;;;;;;;6.20;3.55;;;;;;;22.68;34.63;100424.66;5093631;28;20062;-45
2024/02/02 11:18:11;;;;;;;6.03;4.07;;;;;;;22.56;34.97;100421.19;5093678;28;20130;-45
2024/02/02 11:20:50;;;;;;;6.75;4.50;;;;;;;22.61;34.60;100418.63;5093626;28;20032;-45
2024/02/02 11:23:38;;;;;;;4.70;3.33;;;;;;;22.28;34.81;100417.44;5109502;28;20501;-45
2024/02/02 11:26:35;;;;;;;5.95;3.40;;;;;;;22.13;35.63;100397.31;5093469;28;20387;-44